sensor_id;sensor_type;location;lat;lon;timestamp;pressure;altitude;pressure_sealevel;temperature;humidity
76866;BME280;66647;52.124;5.416;2023-04-29T00:00:08;101575.91;;;9.32;91.16
76866;BME280;66647;52.124;5.416;2023-04-29T00:02:39;101575.91;;;9.32;91.60
76866;BME280;66647;52.124;5.416;2023-04-29T00:05:06;101583.00;;;9.33;91.34
76866;BME280;66647;52.124;5.416;2023-04-29T00:07:33;101584.72;;;9.29;91.37
76866;BME280;66647;52.124;5.416;2023-04-29T00:09:59;101580.94;;;9.25;91.11
76866;BME280;66647;52.124;5.416;2023-04-29T00:12:27;101584.78;;;9.24;91.16
76866;BME280;66647;52.124;5.416;2023-04-29T00:14:55;101589.16;;;9.25;91.58
76866;BME280;66647;52.124;5.416;2023-04-29T00:17:22;101580.44;;;9.23;91.33
76866;BME280;66647;52.124;5.416;2023-04-29T00:19:48;101592.19;;;9.23;91.50
76866;BME280;66647;52.124;5.416;2023-04-29T00:22:19;101588.66;;;9.23;91.74
76866;BME280;66647;52.124;5.416;2023-04-29T00:24:47;101589.16;;;9.25;91.69
76866;BME280;66647;52.124;5.416;2023-04-29T00:27:13;101596.78;;;9.28;91.81
76866;BME280;66647;52.124;5.416;2023-04-29T00:29:40;101593.53;;;9.26;91.22
76866;BME280;66647;52.124;5.416;2023-04-29T00:32:06;101597.38;;;9.25;91.77
76866;BME280;66647;52.124;5.416;2023-04-29T00:34:33;101598.19;;;9.25;91.50
76866;BME280;66647;52.124;5.416;2023-04-29T00:36:59;101602.84;;;9.25;91.33
76866;BME280;66647;52.124;5.416;2023-04-29T00:39:26;101614.69;;;9.20;91.60
76866;BME280;66647;52.124;5.416;2023-04-29T00:41:53;101613.56;;;9.21;91.22
76866;BME280;66647;52.124;5.416;2023-04-29T00:44:20;101610.31;;;9.19;91.75
76866;BME280;66647;52.124;5.416;2023-04-29T00:46:46;101607.06;;;9.17;91.51
76866;BME280;66647;52.124;5.416;2023-04-29T00:49:13;101619.41;;;9.15;91.60
76866;BME280;66647;52.124;5.416;2023-04-29T00:51:41;101615.34;;;9.12;91.76
76866;BME280;66647;52.124;5.416;2023-04-29T00:54:08;101614.03;;;9.09;91.61
76866;BME280;66647;52.124;5.416;2023-04-29T00:56:36;101619.81;;;9.08;91.67
76866;BME280;66647;52.124;5.416;2023-04-29T00:59:05;101625.28;;;9.08;92.47
76866;BME280;66647;52.124;5.416;2023-04-29T01:01:35;101620.91;;;9.07;92.01
76866;BME280;66647;52.124;5.416;2023-04-29T01:04:04;101631.06;;;9.06;91.84
76866;BME280;66647;52.124;5.416;2023-04-29T01:12:44;101633.97;;;9.10;91.85
76866;BME280;66647;52.124;5.416;2023-04-29T01:15:25;101636.81;;;9.05;91.68
76866;BME280;66647;52.124;5.416;2023-04-29T01:18:03;101640.97;;;9.02;91.70
76866;BME280;66647;52.124;5.416;2023-04-29T01:20:31;101643.47;;;8.99;92.03
76866;BME280;66647;52.124;5.416;2023-04-29T01:22:58;101648.94;;;8.99;91.47
76866;BME280;66647;52.124;5.416;2023-04-29T01:25:25;101649.75;;;8.99;91.45
76866;BME280;66647;52.124;5.416;2023-04-29T01:28:45;101654.41;;;8.99;91.45
76866;BME280;66647;52.124;5.416;2023-04-29T01:33:52;101648.94;;;8.99;91.93
76866;BME280;66647;52.124;5.416;2023-04-29T01:39:13;101663.50;;;8.94;92.03
76866;BME280;66647;52.124;5.416;2023-04-29T01:44:34;101664.31;;;8.95;91.30
76866;BME280;66647;52.124;5.416;2023-04-29T01:47:02;101663.50;;;8.94;91.53
76866;BME280;66647;52.124;5.416;2023-04-29T01:49:35;101668.38;;;8.97;91.55
76866;BME280;66647;52.124;5.416;2023-04-29T01:52:03;101669.19;;;8.98;91.43
76866;BME280;66647;52.124;5.416;2023-04-29T01:54:31;101665.94;;;8.96;91.19
76866;BME280;66647;52.124;5.416;2023-04-29T01:57:02;101664.31;;;8.95;91.51
76866;BME280;66647;52.124;5.416;2023-04-29T01:59:48;101663.78;;;8.93;91.67
76866;BME280;66647;52.124;5.416;2023-04-29T02:02:54;101677.47;;;8.93;91.63
76866;BME280;66647;52.124;5.416;2023-04-29T02:05:33;101668.97;;;8.94;92.09
76866;BME280;66647;52.124;5.416;2023-04-29T02:08:01;101675.25;;;8.95;91.79
76866;BME280;66647;52.124;5.416;2023-04-29T02:10:30;101686.19;;;8.95;92.01
76866;BME280;66647;52.124;5.416;2023-04-29T02:13:08;101676.34;;;8.94;91.07
76866;BME280;66647;52.124;5.416;2023-04-29T02:15:39;101679.69;;;8.91;91.37
76866;BME280;66647;52.124;5.416;2023-04-29T02:18:05;101690.03;;;8.94;91.84
76866;BME280;66647;52.124;5.416;2023-04-29T02:20:32;101686.19;;;8.95;91.22
76866;BME280;66647;52.124;5.416;2023-04-29T02:23:00;101690.03;;;8.94;91.26
76866;BME280;66647;52.124;5.416;2023-04-29T02:25:27;101687.81;;;8.96;91.17
76866;BME280;66647;52.124;5.416;2023-04-29T02:27:53;101692.47;;;8.95;91.56
76866;BME280;66647;52.124;5.416;2023-04-29T02:30:20;101697.66;;;8.97;91.28
76866;BME280;66647;52.124;5.416;2023-04-29T02:32:48;101704.22;;;8.96;91.27
76866;BME280;66647;52.124;5.416;2023-04-29T02:35:17;101700.69;;;8.95;90.77
76866;BME280;66647;52.124;5.416;2023-04-29T02:37:43;101705.03;;;8.96;91.21
76866;BME280;66647;52.124;5.416;2023-04-29T02:40:11;101706.97;;;8.96;90.89
76866;BME280;66647;52.124;5.416;2023-04-29T02:42:38;101719.53;;;8.97;91.21
76866;BME280;66647;52.124;5.416;2023-04-29T02:45:09;101716.81;;;8.97;90.85
76866;BME280;66647;52.124;5.416;2023-04-29T02:47:36;101721.69;;;9.00;91.09
76866;BME280;66647;52.124;5.416;2023-04-29T02:50:03;101725.53;;;8.99;91.18
76866;BME280;66647;52.124;5.416;2023-04-29T02:52:31;101722.78;;;8.99;91.02
76866;BME280;66647;52.124;5.416;2023-04-29T02:54:57;101725.81;;;8.97;90.96
76866;BME280;66647;52.124;5.416;2023-04-29T02:57:25;101726.63;;;8.98;91.07
76866;BME280;66647;52.124;5.416;2023-04-29T02:59:52;101722.28;;;8.97;90.37
76866;BME280;66647;52.124;5.416;2023-04-29T03:02:19;101733.75;;;8.99;91.16
76866;BME280;66647;52.124;5.416;2023-04-29T03:04:49;101731.00;;;8.99;90.85
76866;BME280;66647;52.124;5.416;2023-04-29T03:07:16;101742.75;;;8.99;90.28
76866;BME280;66647;52.124;5.416;2023-04-29T03:09:43;101740.84;;;9.00;90.71
76866;BME280;66647;52.124;5.416;2023-04-29T03:12:09;101740.84;;;9.00;90.46
76866;BME280;66647;52.124;5.416;2023-04-29T03:14:36;101747.66;;;9.02;90.39
76866;BME280;66647;52.124;5.416;2023-04-29T03:17:03;101747.13;;;9.00;90.57
76866;BME280;66647;52.124;5.416;2023-04-29T03:19:30;101750.16;;;8.99;90.29
76866;BME280;66647;52.124;5.416;2023-04-29T03:21:58;101747.41;;;8.99;90.33
76866;BME280;66647;52.124;5.416;2023-04-29T03:24:24;101754.50;;;9.00;90.48
76866;BME280;66647;52.124;5.416;2023-04-29T03:26:51;101749.84;;;9.00;90.39
76866;BME280;66647;52.124;5.416;2023-04-29T03:29:19;101759.47;;;8.98;89.66
76866;BME280;66647;52.124;5.416;2023-04-29T03:31:46;101753.47;;;8.96;89.93
76866;BME280;66647;52.124;5.416;2023-04-29T03:34:13;101761.38;;;8.97;88.98
76866;BME280;66647;52.124;5.416;2023-04-29T03:36:45;101758.94;;;8.96;89.57
76866;BME280;66647;52.124;5.416;2023-04-29T03:39:12;101756.19;;;8.96;89.13
76866;BME280;66647;52.124;5.416;2023-04-29T03:41:39;101762.78;;;8.95;89.35
76866;BME280;66647;52.124;5.416;2023-04-29T03:44:07;101767.44;;;8.94;89.14
76866;BME280;66647;52.124;5.416;2023-04-29T03:46:33;101773.72;;;8.95;88.95
76866;BME280;66647;52.124;5.416;2023-04-29T03:49:00;101771.00;;;8.95;88.59
76866;BME280;66647;52.124;5.416;2023-04-29T03:51:27;101769.34;;;8.94;88.28
76866;BME280;66647;52.124;5.416;2023-04-29T03:54:03;101784.66;;;8.95;88.57
76866;BME280;66647;52.124;5.416;2023-04-29T03:56:30;101781.41;;;8.93;88.55
76866;BME280;66647;52.124;5.416;2023-04-29T03:58:56;101779.78;;;8.92;88.28
76866;BME280;66647;52.124;5.416;2023-04-29T04:01:25;101780.59;;;8.92;87.58
76866;BME280;66647;52.124;5.416;2023-04-29T04:03:51;101782.81;;;8.90;87.95
76866;BME280;66647;52.124;5.416;2023-04-29T04:06:18;101783.63;;;8.91;86.95
76866;BME280;66647;52.124;5.416;2023-04-29T04:08:44;101789.91;;;8.91;86.72
76866;BME280;66647;52.124;5.416;2023-04-29T04:11:15;101789.91;;;8.91;87.31
76866;BME280;66647;52.124;5.416;2023-04-29T04:13:48;101797.28;;;8.91;86.81
76866;BME280;66647;52.124;5.416;2023-04-29T04:16:15;101797.28;;;8.91;86.93
76866;BME280;66647;52.124;5.416;2023-04-29T04:18:42;101796.19;;;8.92;86.89
76866;BME280;66647;52.124;5.416;2023-04-29T04:21:10;101794.84;;;8.89;87.50
76866;BME280;66647;52.124;5.416;2023-04-29T04:23:40;101794.31;;;8.87;87.73
76866;BME280;66647;52.124;5.416;2023-04-29T04:26:09;101802.53;;;8.87;86.77
76866;BME280;66647;52.124;5.416;2023-04-29T04:28:56;101804.44;;;8.87;86.95
76866;BME280;66647;52.124;5.416;2023-04-29T04:31:31;101803.34;;;8.88;86.33
76866;BME280;66647;52.124;5.416;2023-04-29T04:33:58;101805.78;;;8.89;85.88
76866;BME280;66647;52.124;5.416;2023-04-29T04:36:25;101803.88;;;8.90;86.20
76866;BME280;66647;52.124;5.416;2023-04-29T04:38:53;101814.00;;;8.89;85.97
76866;BME280;66647;52.124;5.416;2023-04-29T04:41:20;101820.28;;;8.90;86.20
76866;BME280;66647;52.124;5.416;2023-04-29T04:43:47;101821.91;;;8.91;86.41
76866;BME280;66647;52.124;5.416;2023-04-29T04:46:20;101820.28;;;8.90;86.35
76866;BME280;66647;52.124;5.416;2023-04-29T04:49:07;101836.41;;;8.91;86.88
76866;BME280;66647;52.124;5.416;2023-04-29T04:51:43;101834.47;;;8.92;87.00
76866;BME280;66647;52.124;5.416;2023-04-29T04:54:10;101835.28;;;8.92;86.68
76866;BME280;66647;52.124;5.416;2023-04-29T04:56:37;101845.41;;;8.92;86.75
76866;BME280;66647;52.124;5.416;2023-04-29T04:59:06;101848.16;;;8.92;87.47
76866;BME280;66647;52.124;5.416;2023-04-29T05:01:35;101852.53;;;8.93;87.29
76866;BME280;66647;52.124;5.416;2023-04-29T05:04:02;101855.78;;;8.95;86.61
76866;BME280;66647;52.124;5.416;2023-04-29T05:06:29;101857.94;;;8.98;86.70
76866;BME280;66647;52.124;5.416;2023-04-29T05:08:56;101857.66;;;8.99;87.23
76866;BME280;66647;52.124;5.416;2023-04-29T05:11:23;101860.91;;;9.01;87.35
76866;BME280;66647;52.124;5.416;2023-04-29T05:14:04;101861.44;;;9.03;87.02
76866;BME280;66647;52.124;5.416;2023-04-29T05:16:31;101866.34;;;9.06;87.20
76866;BME280;66647;52.124;5.416;2023-04-29T05:18:57;101864.41;;;9.07;87.28
76866;BME280;66647;52.124;5.416;2023-04-29T05:21:29;101870.41;;;9.09;87.04
76866;BME280;66647;52.124;5.416;2023-04-29T05:23:57;101874.19;;;9.13;87.04
76866;BME280;66647;52.124;5.416;2023-04-29T05:26:25;101876.63;;;9.15;87.22
76866;BME280;66647;52.124;5.416;2023-04-29T05:28:55;101878.50;;;9.19;86.93
76866;BME280;66647;52.124;5.416;2023-04-29T05:31:22;101874.06;;;9.23;86.95
76866;BME280;66647;52.124;5.416;2023-04-29T05:33:49;101878.97;;;9.26;87.08
76866;BME280;66647;52.124;5.416;2023-04-29T05:36:19;101880.00;;;9.30;86.67
76866;BME280;66647;52.124;5.416;2023-04-29T05:38:46;101883.78;;;9.34;86.74
76866;BME280;66647;52.124;5.416;2023-04-29T05:41:13;101886.53;;;9.34;86.63
76866;BME280;66647;52.124;5.416;2023-04-29T05:43:40;101893.06;;;9.38;86.99
76866;BME280;66647;52.124;5.416;2023-04-29T05:46:11;101893.78;;;9.44;86.82
76866;BME280;66647;52.124;5.416;2023-04-29T05:48:38;101897.81;;;9.52;86.36
76866;BME280;66647;52.124;5.416;2023-04-29T05:51:05;101899.66;;;9.56;86.91
76866;BME280;66647;52.124;5.416;2023-04-29T05:53:32;101902.59;;;9.65;86.59
76866;BME280;66647;52.124;5.416;2023-04-29T05:56:01;101910.16;;;9.73;86.37
76866;BME280;66647;52.124;5.416;2023-04-29T05:58:31;101906.50;;;9.77;86.33
76866;BME280;66647;52.124;5.416;2023-04-29T06:00:58;101909.69;;;9.85;86.09
76866;BME280;66647;52.124;5.416;2023-04-29T06:03:26;101913.13;;;9.95;86.03
76866;BME280;66647;52.124;5.416;2023-04-29T06:06:13;101926.69;;;10.05;85.48
76866;BME280;66647;52.124;5.416;2023-04-29T06:08:59;101921.88;;;10.16;85.31
76866;BME280;66647;52.124;5.416;2023-04-29T06:11:27;101927.03;;;10.18;84.87
76866;BME280;66647;52.124;5.416;2023-04-29T06:13:54;101924.59;;;10.16;85.14
76866;BME280;66647;52.124;5.416;2023-04-29T06:16:21;101933.94;;;10.15;85.48
76866;BME280;66647;52.124;5.416;2023-04-29T06:18:47;101929.78;;;10.18;85.44
76866;BME280;66647;52.124;5.416;2023-04-29T06:21:16;101943.38;;;10.28;85.35
76866;BME280;66647;52.124;5.416;2023-04-29T06:23:43;101943.03;;;10.34;84.91
76866;BME280;66647;52.124;5.416;2023-04-29T06:26:15;101944.25;;;10.42;84.96
76866;BME280;66647;52.124;5.416;2023-04-29T06:28:41;101947.50;;;10.44;85.02
76866;BME280;66647;52.124;5.416;2023-04-29T06:31:08;101953.91;;;10.39;85.20
76866;BME280;66647;52.124;5.416;2023-04-29T06:33:35;101945.38;;;10.41;85.07
76866;BME280;66647;52.124;5.416;2023-04-29T06:36:01;101951.38;;;10.43;84.60
76866;BME280;66647;52.124;5.416;2023-04-29T06:38:53;101956.44;;;10.36;84.82
76866;BME280;66647;52.124;5.416;2023-04-29T06:41:20;101962.34;;;10.43;84.49
76866;BME280;66647;52.124;5.416;2023-04-29T06:43:47;101972.56;;;10.56;84.84
76866;BME280;66647;52.124;5.416;2023-04-29T06:46:33;101973.75;;;10.50;83.97
76866;BME280;66647;52.124;5.416;2023-04-29T06:49:03;101987.69;;;10.54;84.21
76866;BME280;66647;52.124;5.416;2023-04-29T06:51:31;101996.66;;;10.59;83.53
76866;BME280;66647;52.124;5.416;2023-04-29T06:53:59;101997.75;;;10.58;83.27
76866;BME280;66647;52.124;5.416;2023-04-29T06:56:26;101996.13;;;10.57;83.38
76866;BME280;66647;52.124;5.416;2023-04-29T06:58:53;101996.13;;;10.57;83.64
76866;BME280;66647;52.124;5.416;2023-04-29T07:01:19;102001.28;;;10.77;82.88
76866;BME280;66647;52.124;5.416;2023-04-29T07:03:46;102004.75;;;11.02;81.87
76866;BME280;66647;52.124;5.416;2023-04-29T07:06:13;102003.66;;;11.03;81.62
76866;BME280;66647;52.124;5.416;2023-04-29T07:08:40;102010.31;;;11.29;80.20
76866;BME280;66647;52.124;5.416;2023-04-29T07:11:06;102004.31;;;11.27;80.22
76866;BME280;66647;52.124;5.416;2023-04-29T07:13:33;102017.66;;;11.34;80.02
76866;BME280;66647;52.124;5.416;2023-04-29T07:15:59;102012.75;;;11.44;79.94
76866;BME280;66647;52.124;5.416;2023-04-29T07:18:27;102017.59;;;12.07;79.55
76866;BME280;66647;52.124;5.416;2023-04-29T07:21:00;102008.63;;;12.88;75.40
76866;BME280;66647;52.124;5.416;2023-04-29T07:23:26;102020.50;;;12.97;75.76
76866;BME280;66647;52.124;5.416;2023-04-29T07:25:53;102019.50;;;13.77;74.21
76866;BME280;66647;52.124;5.416;2023-04-29T07:28:19;102030.53;;;14.34;70.96
76866;BME280;66647;52.124;5.416;2023-04-29T07:30:47;102021.13;;;13.78;70.60
76866;BME280;66647;52.124;5.416;2023-04-29T07:33:14;102032.75;;;13.35;72.24
76866;BME280;66647;52.124;5.416;2023-04-29T07:35:44;102040.44;;;13.16;72.36
76866;BME280;66647;52.124;5.416;2023-04-29T07:38:11;102037.03;;;12.97;72.53
76866;BME280;66647;52.124;5.416;2023-04-29T07:40:40;102040.91;;;12.96;72.02
76866;BME280;66647;52.124;5.416;2023-04-29T07:43:07;102040.75;;;13.01;72.60
76866;BME280;66647;52.124;5.416;2023-04-29T07:45:34;102043.84;;;12.99;72.33
76866;BME280;66647;52.124;5.416;2023-04-29T07:48:01;102046.19;;;13.28;70.56
76866;BME280;66647;52.124;5.416;2023-04-29T07:50:28;102053.84;;;13.40;70.18
76866;BME280;66647;52.124;5.416;2023-04-29T07:52:54;102050.47;;;13.74;69.42
76866;BME280;66647;52.124;5.416;2023-04-29T07:55:23;102057.97;;;13.82;67.46
76866;BME280;66647;52.124;5.416;2023-04-29T07:57:51;102056.53;;;13.85;67.61
76866;BME280;66647;52.124;5.416;2023-04-29T08:00:18;102054.88;;;14.40;66.42
76866;BME280;66647;52.124;5.416;2023-04-29T08:02:49;102063.88;;;14.63;66.60
76866;BME280;66647;52.124;5.416;2023-04-29T08:05:17;102066.63;;;15.06;63.05
76866;BME280;66647;52.124;5.416;2023-04-29T08:07:46;102060.59;;;15.30;63.83
76866;BME280;66647;52.124;5.416;2023-04-29T08:10:14;102063.94;;;15.62;61.81
76866;BME280;66647;52.124;5.416;2023-04-29T08:12:45;102063.44;;;16.36;61.35
76866;BME280;66647;52.124;5.416;2023-04-29T08:15:11;102065.28;;;16.82;57.75
76866;BME280;66647;52.124;5.416;2023-04-29T08:17:38;102062.78;;;16.89;58.65
76866;BME280;66647;52.124;5.416;2023-04-29T08:20:06;102072.69;;;17.11;57.17
76866;BME280;66647;52.124;5.416;2023-04-29T08:22:39;102075.91;;;17.13;56.37
76866;BME280;66647;52.124;5.416;2023-04-29T08:25:06;102077.34;;;16.57;55.55
76866;BME280;66647;52.124;5.416;2023-04-29T08:27:33;102089.09;;;15.86;58.18
76866;BME280;66647;52.124;5.416;2023-04-29T08:29:59;102089.66;;;15.54;60.00
76866;BME280;66647;52.124;5.416;2023-04-29T08:32:26;102087.41;;;15.47;58.26
76866;BME280;66647;52.124;5.416;2023-04-29T08:34:52;102088.50;;;16.10;57.92
76866;BME280;66647;52.124;5.416;2023-04-29T08:37:19;102081.47;;;16.71;56.50
76866;BME280;66647;52.124;5.416;2023-04-29T08:39:46;102070.66;;;17.32;53.99
76866;BME280;66647;52.124;5.416;2023-04-29T08:42:13;102085.13;;;17.71;54.28
76866;BME280;66647;52.124;5.416;2023-04-29T08:44:39;102082.72;;;17.94;54.14
76866;BME280;66647;52.124;5.416;2023-04-29T08:47:07;102082.97;;;18.01;53.28
76866;BME280;66647;52.124;5.416;2023-04-29T08:49:34;102086.00;;;17.51;54.82
76866;BME280;66647;52.124;5.416;2023-04-29T08:52:03;102096.81;;;17.10;54.86
76866;BME280;66647;52.124;5.416;2023-04-29T08:54:31;102106.88;;;16.73;54.63
76866;BME280;66647;52.124;5.416;2023-04-29T08:56:58;102092.69;;;16.75;55.29
76866;BME280;66647;52.124;5.416;2023-04-29T08:59:28;102101.13;;;16.99;62.24
76866;BME280;66647;52.124;5.416;2023-04-29T09:01:55;102097.66;;;17.23;53.05
76866;BME280;66647;52.124;5.416;2023-04-29T09:04:30;102099.97;;;17.54;51.45
76866;BME280;66647;52.124;5.416;2023-04-29T09:07:00;102102.84;;;17.12;52.27
76866;BME280;66647;52.124;5.416;2023-04-29T09:09:28;102115.41;;;16.89;52.67
76866;BME280;66647;52.124;5.416;2023-04-29T09:11:55;102106.06;;;16.94;53.28
76866;BME280;66647;52.124;5.416;2023-04-29T09:14:22;102108.19;;;17.51;53.56
76866;BME280;66647;52.124;5.416;2023-04-29T09:16:49;102112.03;;;18.16;51.30
76866;BME280;66647;52.124;5.416;2023-04-29T09:19:35;102121.63;;;18.18;53.24
76866;BME280;66647;52.124;5.416;2023-04-29T09:22:03;102120.31;;;18.03;53.07
76866;BME280;66647;52.124;5.416;2023-04-29T09:24:33;102119.28;;;18.32;51.23
76866;BME280;66647;52.124;5.416;2023-04-29T09:26:59;102114.09;;;18.31;52.29
76866;BME280;66647;52.124;5.416;2023-04-29T09:29:28;102127.50;;;18.53;50.19
76866;BME280;66647;52.124;5.416;2023-04-29T09:31:56;102121.94;;;18.53;50.25
76866;BME280;66647;52.124;5.416;2023-04-29T09:34:32;102129.13;;;18.66;50.52
76866;BME280;66647;52.124;5.416;2023-04-29T09:36:58;102125.97;;;18.56;51.17
76866;BME280;66647;52.124;5.416;2023-04-29T09:39:25;102126.81;;;18.81;50.83
76866;BME280;66647;52.124;5.416;2023-04-29T09:44:23;102138.00;;;19.24;50.35
76866;BME280;66647;52.124;5.416;2023-04-29T09:47:02;102143.13;;;19.50;52.39
76866;BME280;66647;52.124;5.416;2023-04-29T09:49:33;102129.69;;;19.52;48.96
76866;BME280;66647;52.124;5.416;2023-04-29T09:52:04;102136.22;;;19.72;47.61
76866;BME280;66647;52.124;5.416;2023-04-29T09:54:32;102141.16;;;19.94;46.84
76866;BME280;66647;52.124;5.416;2023-04-29T09:57:00;102144.50;;;20.00;47.62
76866;BME280;66647;52.124;5.416;2023-04-29T09:59:32;102142.38;;;19.37;47.36
76866;BME280;66647;52.124;5.416;2023-04-29T10:02:14;102155.19;;;18.74;48.91
76866;BME280;66647;52.124;5.416;2023-04-29T10:04:43;102143.78;;;18.91;48.07
76866;BME280;66647;52.124;5.416;2023-04-29T10:07:14;102143.03;;;19.46;46.49
76866;BME280;66647;52.124;5.416;2023-04-29T10:09:45;102143.97;;;20.10;45.89
76866;BME280;66647;52.124;5.416;2023-04-29T10:12:18;102137.56;;;20.25;45.39
76866;BME280;66647;52.124;5.416;2023-04-29T10:15:01;102153.38;;;19.74;48.63
76866;BME280;66647;52.124;5.416;2023-04-29T10:20:35;102147.13;;;20.08;44.14
76866;BME280;66647;52.124;5.416;2023-04-29T10:23:03;102146.88;;;19.70;45.25
76866;BME280;66647;52.124;5.416;2023-04-29T10:25:30;102148.16;;;19.44;45.84
76866;BME280;66647;52.124;5.416;2023-04-29T10:27:59;102155.91;;;19.11;44.36
76866;BME280;66647;52.124;5.416;2023-04-29T10:30:27;102155.28;;;19.30;46.56
76866;BME280;66647;52.124;5.416;2023-04-29T10:32:54;102154.13;;;20.02;45.69
76866;BME280;66647;52.124;5.416;2023-04-29T10:35:22;102145.94;;;19.78;45.27
76866;BME280;66647;52.124;5.416;2023-04-29T10:37:52;102145.56;;;19.52;44.32
76866;BME280;66647;52.124;5.416;2023-04-29T10:40:27;102153.03;;;19.07;46.68
76866;BME280;66647;52.124;5.416;2023-04-29T10:42:57;102158.19;;;18.69;47.35
76866;BME280;66647;52.124;5.416;2023-04-29T10:45:27;102163.19;;;18.75;47.45
76866;BME280;66647;52.124;5.416;2023-04-29T10:48:15;102149.41;;;19.47;47.12
76866;BME280;66647;52.124;5.416;2023-04-29T10:53:18;102152.44;;;20.45;44.21
76866;BME280;66647;52.124;5.416;2023-04-29T10:56:03;102157.44;;;20.55;42.94
76866;BME280;66647;52.124;5.416;2023-04-29T11:01:07;102164.97;;;20.23;42.96
76866;BME280;66647;52.124;5.416;2023-04-29T11:03:50;102159.19;;;19.85;44.89
76866;BME280;66647;52.124;5.416;2023-04-29T11:09:10;102149.78;;;19.89;44.00
76866;BME280;66647;52.124;5.416;2023-04-29T11:11:41;102159.41;;;20.55;42.97
76866;BME280;66647;52.124;5.416;2023-04-29T11:14:12;102156.44;;;20.63;42.52
76866;BME280;66647;52.124;5.416;2023-04-29T11:16:53;102160.41;;;20.31;43.05
76866;BME280;66647;52.124;5.416;2023-04-29T11:19:23;102157.69;;;20.19;43.17
76866;BME280;66647;52.124;5.416;2023-04-29T11:22:03;102159.41;;;20.70;43.35
76866;BME280;66647;52.124;5.416;2023-04-29T11:24:29;102164.84;;;20.83;41.80
76866;BME280;66647;52.124;5.416;2023-04-29T11:26:59;102157.63;;;20.82;40.56
76866;BME280;66647;52.124;5.416;2023-04-29T11:29:30;102161.22;;;20.98;42.35
76866;BME280;66647;52.124;5.416;2023-04-29T11:32:00;102155.75;;;21.40;40.39
76866;BME280;66647;52.124;5.416;2023-04-29T11:34:27;102156.50;;;21.37;39.02
76866;BME280;66647;52.124;5.416;2023-04-29T11:36:53;102166.72;;;21.13;40.73
76866;BME280;66647;52.124;5.416;2023-04-29T11:39:20;102159.25;;;20.83;41.90
76866;BME280;66647;52.124;5.416;2023-04-29T11:41:48;102169.13;;;20.96;41.63
76866;BME280;66647;52.124;5.416;2023-04-29T11:44:20;102161.56;;;20.96;40.37
76866;BME280;66647;52.124;5.416;2023-04-29T11:46:47;102163.19;;;21.17;41.12
76866;BME280;66647;52.124;5.416;2023-04-29T11:49:14;102161.94;;;20.95;40.89
76866;BME280;66647;52.124;5.416;2023-04-29T11:51:41;102158.88;;;20.49;41.47
76866;BME280;66647;52.124;5.416;2023-04-29T11:54:08;102155.03;;;20.38;42.53
76866;BME280;66647;52.124;5.416;2023-04-29T11:56:36;102164.38;;;20.80;41.95
76866;BME280;66647;52.124;5.416;2023-04-29T11:59:03;102156.06;;;21.19;41.27
76866;BME280;66647;52.124;5.416;2023-04-29T12:01:34;102167.25;;;21.19;39.94
76866;BME280;66647;52.124;5.416;2023-04-29T12:04:01;102168.94;;;20.54;41.92
76866;BME280;66647;52.124;5.416;2023-04-29T12:06:29;102169.56;;;20.47;41.72
76866;BME280;66647;52.124;5.416;2023-04-29T12:08:57;102168.41;;;20.64;41.05
76866;BME280;66647;52.124;5.416;2023-04-29T12:11:24;102161.00;;;20.71;40.63
76866;BME280;66647;52.124;5.416;2023-04-29T12:13:52;102163.97;;;20.78;40.31
76866;BME280;66647;52.124;5.416;2023-04-29T12:16:19;102165.72;;;20.87;40.57
76866;BME280;66647;52.124;5.416;2023-04-29T12:18:46;102164.53;;;20.68;41.75
76866;BME280;66647;52.124;5.416;2023-04-29T12:21:12;102158.50;;;20.35;39.55
76866;BME280;66647;52.124;5.416;2023-04-29T12:23:39;102162.38;;;19.99;40.12
76866;BME280;66647;52.124;5.416;2023-04-29T12:26:06;102162.03;;;20.32;42.15
76866;BME280;66647;52.124;5.416;2023-04-29T12:28:33;102162.31;;;20.11;40.76
76866;BME280;66647;52.124;5.416;2023-04-29T12:31:00;102167.69;;;20.04;41.11
76866;BME280;66647;52.124;5.416;2023-04-29T12:33:28;102163.28;;;20.03;41.01
76866;BME280;66647;52.124;5.416;2023-04-29T12:35:56;102159.78;;;19.62;43.59
76866;BME280;66647;52.124;5.416;2023-04-29T12:38:31;102159.66;;;19.71;43.14
76866;BME280;66647;52.124;5.416;2023-04-29T12:40:59;102158.56;;;19.75;43.06
76866;BME280;66647;52.124;5.416;2023-04-29T12:43:30;102163.19;;;19.99;45.72
76866;BME280;66647;52.124;5.416;2023-04-29T12:46:05;102165.44;;;20.09;42.85
76866;BME280;66647;52.124;5.416;2023-04-29T12:48:36;102153.66;;;20.00;44.18
76866;BME280;66647;52.124;5.416;2023-04-29T12:51:09;102164.38;;;20.14;43.92
76866;BME280;66647;52.124;5.416;2023-04-29T12:53:37;102177.66;;;20.21;43.75
76866;BME280;66647;52.124;5.416;2023-04-29T12:56:05;102171.81;;;20.10;41.74
76866;BME280;66647;52.124;5.416;2023-04-29T12:58:34;102170.97;;;19.94;42.75
76866;BME280;66647;52.124;5.416;2023-04-29T13:01:01;102174.38;;;19.87;44.03
76866;BME280;66647;52.124;5.416;2023-04-29T13:03:27;102175.13;;;20.16;43.38
76866;BME280;66647;52.124;5.416;2023-04-29T13:05:54;102163.97;;;19.84;43.64
76866;BME280;66647;52.124;5.416;2023-04-29T13:08:21;102178.25;;;19.55;43.33
76866;BME280;66647;52.124;5.416;2023-04-29T13:10:48;102174.38;;;19.31;44.50
76866;BME280;66647;52.124;5.416;2023-04-29T13:13:14;102174.38;;;19.71;43.58
76866;BME280;66647;52.124;5.416;2023-04-29T13:15:41;102174.78;;;19.58;42.69
76866;BME280;66647;52.124;5.416;2023-04-29T13:18:08;102177.31;;;19.23;43.49
76866;BME280;66647;52.124;5.416;2023-04-29T13:20:34;102179.28;;;19.22;43.58
76866;BME280;66647;52.124;5.416;2023-04-29T13:23:07;102184.91;;;19.38;44.20
76866;BME280;66647;52.124;5.416;2023-04-29T13:25:34;102178.25;;;19.55;43.60
76866;BME280;66647;52.124;5.416;2023-04-29T13:28:01;102181.72;;;19.64;43.10
76866;BME280;66647;52.124;5.416;2023-04-29T13:30:27;102180.50;;;19.77;42.66
76866;BME280;66647;52.124;5.416;2023-04-29T13:32:54;102182.25;;;19.69;43.21